Time;durP1;ratioP1;P1;durP2;ratioP2;P2;SDS_P1;SDS_P2;PMS_P1;PMS_P2;Temp;Humidity;BMP_temperature;BMP_pressure;BME280_temperature;BME280_humidity;BME280_pressure;Samples;Min_cycle;Max_cycle;Signal;HPM_P1;HPM_P2
2021/11/04 00:02:12;;;;;;;;;27.25;25.25;;;;;;;;5052534;28;45355;-69
2021/11/04 00:04:37;;;;;;;;;25.00;22.50;;;;;;;;5053438;28;45499;-69
2021/11/04 00:07:05;;;;;;;;;27.50;24.00;;;;;;;;5054268;28;47341;-69
2021/11/04 00:09:31;;;;;;;;;29.00;28.00;;;;;;;;5052852;28;45442;-69
2021/11/04 00:11:56;;;;;;;;;22.25;22.25;;;;;;;;5052691;28;45478;-71
2021/11/04 00:14:21;;;;;;;;;24.75;20.00;;;;;;;;5052640;28;45219;-70
2021/11/04 00:16:47;;;;;;;;;22.25;22.25;;;;;;;;5052805;28;45515;-70
2021/11/04 00:19:12;;;;;;;;;24.50;23.50;;;;;;;;5054907;28;45707;-70
2021/11/04 00:21:37;;;;;;;;;17.50;16.25;;;;;;;;5052788;28;45276;-70
2021/11/04 00:24:03;;;;;;;;;24.00;20.50;;;;;;;;5051128;28;45234;-70
2021/11/04 00:26:28;;;;;;;;;26.25;23.00;;;;;;;;5050969;28;46171;-70
2021/11/04 00:28:56;;;;;;;;;27.25;25.00;;;;;;;;5052754;28;45427;-69
2021/11/04 00:31:21;;;;;;;;;24.50;21.25;;;;;;;;5051259;28;45415;-71
2021/11/04 00:33:51;;;;;;;;;26.00;25.75;;;;;;;;5052792;28;45435;-69
2021/11/04 00:36:16;;;;;;;;;27.25;25.25;;;;;;;;5052276;28;47394;-70
2021/11/04 00:38:45;;;;;;;;;22.25;22.25;;;;;;;;5052378;28;45483;-69
2021/11/04 00:41:11;;;;;;;;;21.00;20.00;;;;;;;;5052883;28;46458;-70
2021/11/04 00:43:36;;;;;;;;;22.25;22.25;;;;;;;;5052944;28;45527;-70
2021/11/04 00:46:01;;;;;;;;;22.00;20.75;;;;;;;;5053695;28;47142;-69
2021/11/04 00:48:26;;;;;;;;;23.50;21.25;;;;;;;;5051704;28;45535;-70
2021/11/04 00:50:52;;;;;;;;;21.25;20.50;;;;;;;;5052352;28;45511;-70
2021/11/04 00:53:17;;;;;;;;;22.00;20.75;;;;;;;;5052428;28;45458;-70
2021/11/04 00:55:42;;;;;;;;;22.25;20.25;;;;;;;;5052138;28;46118;-70
2021/11/04 00:58:07;;;;;;;;;20.50;17.75;;;;;;;;5053892;28;45434;-70
2021/11/04 01:00:33;;;;;;;;;25.50;21.00;;;;;;;;5054022;28;45363;-70
2021/11/04 01:02:58;;;;;;;;;18.75;17.75;;;;;;;;5054125;28;45420;-70
2021/11/04 01:05:23;;;;;;;;;18.00;18.00;;;;;;;;5054181;28;46077;-70
2021/11/04 01:07:48;;;;;;;;;26.50;23.50;;;;;;;;5055659;28;45399;-69
2021/11/04 01:10:13;;;;;;;;;21.75;19.50;;;;;;;;5057923;28;45364;-69
2021/11/04 01:12:39;;;;;;;;;19.25;19.00;;;;;;;;5055086;28;45332;-69
2021/11/04 01:15:05;;;;;;;;;19.50;19.00;;;;;;;;5055361;28;45987;-69
2021/11/04 01:17:31;;;;;;;;;21.25;20.50;;;;;;;;5055425;28;45425;-69
2021/11/04 01:19:56;;;;;;;;;19.25;18.25;;;;;;;;5055774;28;45454;-69
2021/11/04 01:22:22;;;;;;;;;17.00;17.00;;;;;;;;5057677;28;45383;-69
2021/11/04 01:24:47;;;;;;;;;18.50;18.00;;;;;;;;5055272;28;46277;-69
2021/11/04 01:27:12;;;;;;;;;25.50;20.00;;;;;;;;5055156;28;45245;-69
2021/11/04 01:29:37;;;;;;;;;29.25;21.50;;;;;;;;5055512;28;45486;-68
2021/11/04 01:32:03;;;;;;;;;19.75;19.75;;;;;;;;5055762;28;45382;-69
2021/11/04 01:34:28;;;;;;;;;21.50;20.50;;;;;;;;5056577;28;46796;-68
2021/11/04 01:36:53;;;;;;;;;20.75;18.50;;;;;;;;5056076;28;45276;-68
2021/11/04 01:39:19;;;;;;;;;22.25;21.00;;;;;;;;5055480;28;45475;-70
2021/11/04 01:41:44;;;;;;;;;25.25;20.50;;;;;;;;5053495;28;45434;-69
2021/11/04 01:44:09;;;;;;;;;22.00;17.00;;;;;;;;5053841;28;48868;-70
2021/11/04 01:46:34;;;;;;;;;23.50;19.75;;;;;;;;5055986;28;45760;-70
2021/11/04 01:49:00;;;;;;;;;19.75;17.50;;;;;;;;5056124;28;45330;-70
2021/11/04 01:51:25;;;;;;;;;17.75;16.00;;;;;;;;5055205;28;45455;-70
2021/11/04 01:53:51;;;;;;;;;17.00;15.25;;;;;;;;5054997;28;45395;-70
2021/11/04 01:56:16;;;;;;;;;13.50;10.25;;;;;;;;5054741;28;45522;-70
2021/11/04 01:58:41;;;;;;;;;21.00;19.50;;;;;;;;5055140;28;45672;-70
2021/11/04 02:01:07;;;;;;;;;19.50;18.75;;;;;;;;5057017;28;45504;-70
2021/11/04 02:03:38;;;;;;;;;16.00;14.25;;;;;;;;5054694;28;46187;-70
2021/11/04 02:06:09;;;;;;;;;18.75;16.00;;;;;;;;5054484;28;45302;-70
2021/11/04 02:08:40;;;;;;;;;18.00;16.25;;;;;;;;5055015;28;45414;-70
2021/11/04 02:11:09;;;;;;;;;17.50;16.25;;;;;;;;5054358;28;45506;-70
2021/11/04 02:13:56;;;;;;;;;17.00;14.25;;;;;;;;5055390;28;46995;-69
2021/11/04 02:16:23;;;;;;;;;20.00;17.25;;;;;;;;5052683;28;45367;-70
2021/11/04 02:18:49;;;;;;;;;19.00;17.50;;;;;;;;5054515;28;45379;-70
2021/11/04 02:21:21;;;;;;;;;15.00;13.25;;;;;;;;5053231;28;46282;-69
2021/11/04 02:24:05;;;;;;;;;21.00;18.75;;;;;;;;5052916;28;46170;-70
2021/11/04 02:26:31;;;;;;;;;24.50;20.75;;;;;;;;5054226;28;45332;-69
2021/11/04 02:28:57;;;;;;;;;18.50;18.50;;;;;;;;5054718;28;45869;-69
2021/11/04 02:31:23;;;;;;;;;17.50;15.00;;;;;;;;5056732;28;45473;-70
2021/11/04 02:33:49;;;;;;;;;18.00;18.00;;;;;;;;5053251;28;47169;-70
2021/11/04 02:36:16;;;;;;;;;22.25;18.50;;;;;;;;5054366;28;45488;-70
2021/11/04 02:38:41;;;;;;;;;17.25;16.50;;;;;;;;5054483;28;45566;-69
2021/11/04 02:41:07;;;;;;;;;19.25;17.75;;;;;;;;5054093;28;45328;-70
2021/11/04 02:43:33;;;;;;;;;20.75;18.25;;;;;;;;5055268;28;47103;-69
2021/11/04 02:45:59;;;;;;;;;18.50;17.25;;;;;;;;5055656;28;45362;-69
2021/11/04 02:48:25;;;;;;;;;23.50;22.50;;;;;;;;5054045;28;45398;-70
2021/11/04 02:50:53;;;;;;;;;22.25;21.00;;;;;;;;5054171;28;45302;-69
2021/11/04 02:53:21;;;;;;;;;20.50;18.75;;;;;;;;5054206;28;47034;-69
2021/11/04 02:55:47;;;;;;;;;22.00;22.00;;;;;;;;5053882;28;45357;-69
2021/11/04 02:58:12;;;;;;;;;18.75;17.75;;;;;;;;5056373;28;45336;-69
2021/11/04 03:00:39;;;;;;;;;22.50;21.50;;;;;;;;5052445;28;45489;-69
2021/11/04 03:03:04;;;;;;;;;19.00;16.00;;;;;;;;5052464;28;45493;-69
2021/11/04 03:05:30;;;;;;;;;17.25;17.25;;;;;;;;5053997;28;45731;-69
2021/11/04 03:07:55;;;;;;;;;22.00;19.25;;;;;;;;5054170;28;45344;-70
2021/11/04 03:10:21;;;;;;;;;26.25;21.50;;;;;;;;5055752;28;45422;-70
2021/11/04 03:12:46;;;;;;;;;21.75;19.00;;;;;;;;5053715;28;45355;-69
2021/11/04 03:15:14;;;;;;;;;23.25;19.50;;;;;;;;5053742;28;45422;-69
2021/11/04 03:17:40;;;;;;;;;20.50;18.75;;;;;;;;5053924;28;45559;-69
2021/11/04 03:20:07;;;;;;;;;18.00;14.25;;;;;;;;5053760;28;45347;-69
2021/11/04 03:22:33;;;;;;;;;20.25;18.25;;;;;;;;5053754;28;45553;-71
2021/11/04 03:24:58;;;;;;;;;23.50;19.50;;;;;;;;5054582;28;45460;-69
2021/11/04 03:27:24;;;;;;;;;17.50;17.25;;;;;;;;5053779;28;45350;-69
2021/11/04 03:29:50;;;;;;;;;20.00;16.75;;;;;;;;5053613;28;45335;-69
2021/11/04 03:32:17;;;;;;;;;21.50;20.25;;;;;;;;5053303;28;45485;-69
2021/11/04 03:34:43;;;;;;;;;19.25;17.75;;;;;;;;5053681;28;45359;-69
2021/11/04 03:37:08;;;;;;;;;20.75;18.75;;;;;;;;5055754;28;45369;-69
2021/11/04 03:39:34;;;;;;;;;18.50;18.50;;;;;;;;5051468;28;45374;-70
2021/11/04 03:42:00;;;;;;;;;23.50;20.50;;;;;;;;5051753;28;46337;-69
2021/11/04 03:44:26;;;;;;;;;20.25;19.25;;;;;;;;5053353;28;45526;-69
2021/11/04 03:46:52;;;;;;;;;20.75;18.75;;;;;;;;5053554;28;45276;-69
2021/11/04 03:49:19;;;;;;;;;25.50;22.75;;;;;;;;5055434;28;45487;-69
2021/11/04 03:51:47;;;;;;;;;16.75;16.50;;;;;;;;5052792;28;46470;-70
2021/11/04 03:54:12;;;;;;;;;20.25;18.25;;;;;;;;5052427;28;45344;-69
2021/11/04 03:56:39;;;;;;;;;23.00;20.75;;;;;;;;5053186;28;45428;-69
2021/11/04 03:59:04;;;;;;;;;25.00;22.00;;;;;;;;5053050;28;45598;-69
2021/11/04 04:01:33;;;;;;;;;21.75;20.00;;;;;;;;5054258;28;45978;-70
2021/11/04 04:03:58;;;;;;;;;24.25;20.00;;;;;;;;5054551;28;45470;-71
2021/11/04 04:06:23;;;;;;;;;22.75;18.50;;;;;;;;5053305;28;45520;-68
2021/11/04 04:08:50;;;;;;;;;24.00;20.50;;;;;;;;5053107;28;45297;-70
2021/11/04 04:11:16;;;;;;;;;24.00;19.00;;;;;;;;5052801;28;46344;-70
2021/11/04 04:13:41;;;;;;;;;24.75;19.75;;;;;;;;5034876;28;45990;-69
2021/11/04 04:16:06;;;;;;;;;21.25;19.75;;;;;;;;5055213;28;45286;-69
2021/11/04 04:18:31;;;;;;;;;22.75;20.75;;;;;;;;5051351;28;45518;-68
2021/11/04 04:20:56;;;;;;;;;23.50;20.00;;;;;;;;5050929;28;46079;-70
2021/11/04 04:23:21;;;;;;;;;24.75;24.00;;;;;;;;5053029;28;45277;-70
2021/11/04 04:25:47;;;;;;;;;22.25;21.50;;;;;;;;5052961;28;45651;-70
2021/11/04 04:28:13;;;;;;;;;22.00;22.00;;;;;;;;5054895;28;45352;-70
2021/11/04 04:30:38;;;;;;;;;24.50;23.00;;;;;;;;5052653;28;46071;-70
2021/11/04 04:33:04;;;;;;;;;17.00;15.50;;;;;;;;5052637;28;45474;-70
2021/11/04 04:35:29;;;;;;;;;26.75;22.25;;;;;;;;5055851;28;45280;-69
2021/11/04 04:37:54;;;;;;;;;24.25;21.00;;;;;;;;5056083;28;45455;-69
2021/11/04 04:40:19;;;;;;;;;24.25;20.00;;;;;;;;5057975;28;46210;-69
2021/11/04 04:42:45;;;;;;;;;12.75;9.25;;;;;;;;5055855;28;45638;-70
2021/11/04 04:45:11;;;;;;;;;21.25;20.25;;;;;;;;5055864;28;45284;-69
2021/11/04 04:47:36;;;;;;;;;23.75;19.75;;;;;;;;5055798;28;45382;-70
2021/11/04 04:50:02;;;;;;;;;23.50;20.75;;;;;;;;5055211;28;46045;-70
2021/11/04 04:52:27;;;;;;;;;22.75;22.75;;;;;;;;5057342;28;45312;-70
2021/11/04 04:54:54;;;;;;;;;29.75;25.00;;;;;;;;5055175;28;45276;-70
2021/11/04 04:57:22;;;;;;;;;26.25;25.75;;;;;;;;5054127;28;45377;-70
2021/11/04 04:59:48;;;;;;;;;24.00;23.50;;;;;;;;5053952;28;46495;-69
2021/11/04 05:02:14;;;;;;;;;23.00;20.00;;;;;;;;5055538;28;45856;-70
2021/11/04 05:04:39;;;;;;;;;24.00;23.00;;;;;;;;5055948;28;45334;-70
2021/11/04 05:07:04;;;;;;;;;26.50;24.25;;;;;;;;5057505;28;45542;-70
2021/11/04 05:09:29;;;;;;;;;23.00;19.75;;;;;;;;5055015;28;46312;-69
2021/11/04 05:11:55;;;;;;;;;27.00;22.50;;;;;;;;5055343;28;45358;-71
2021/11/04 05:14:20;;;;;;;;;23.00;20.25;;;;;;;;5055390;28;45437;-69
2021/11/04 05:16:45;;;;;;;;;21.50;20.00;;;;;;;;5055407;28;45286;-70
2021/11/04 05:19:10;;;;;;;;;27.25;23.75;;;;;;;;5056151;28;46504;-70
2021/11/04 05:21:36;;;;;;;;;22.00;20.00;;;;;;;;5054974;28;45529;-69
2021/11/04 05:24:03;;;;;;;;;29.25;26.75;;;;;;;;5055030;28;45488;-70
2021/11/04 05:26:28;;;;;;;;;37.50;32.25;;;;;;;;5054781;28;45412;-69
2021/11/04 05:28:53;;;;;;;;;28.25;24.25;;;;;;;;5055051;28;45387;-69
2021/11/04 05:31:19;;;;;;;;;22.50;21.00;;;;;;;;5057090;28;45615;-70
2021/11/04 05:33:44;;;;;;;;;19.75;19.00;;;;;;;;5054514;28;45554;-70
2021/11/04 05:36:09;;;;;;;;;24.75;24.50;;;;;;;;5052944;28;45447;-71
2021/11/04 05:38:34;;;;;;;;;25.75;24.00;;;;;;;;5052963;28;45967;-71
2021/11/04 05:40:59;;;;;;;;;23.75;23.25;;;;;;;;5054763;28;45371;-70
2021/11/04 05:43:24;;;;;;;;;24.75;22.50;;;;;;;;5056581;28;45462;-70
2021/11/04 05:45:50;;;;;;;;;34.50;28.25;;;;;;;;5053986;28;45312;-70
2021/11/04 05:48:15;;;;;;;;;29.50;25.75;;;;;;;;5053369;28;45426;-70
2021/11/04 05:50:40;;;;;;;;;31.75;27.50;;;;;;;;5054155;28;45288;-69
2021/11/04 05:53:05;;;;;;;;;27.00;26.00;;;;;;;;5054888;28;45424;-70
2021/11/04 05:55:30;;;;;;;;;59.25;45.25;;;;;;;;5055075;28;45438;-70
2021/11/04 05:57:57;;;;;;;;;28.50;23.00;;;;;;;;5054908;28;46100;-71
2021/11/04 06:00:22;;;;;;;;;27.50;24.50;;;;;;;;5054222;28;45277;-70
2021/11/04 06:02:47;;;;;;;;;22.75;21.75;;;;;;;;5054129;28;45323;-70
2021/11/04 06:05:12;;;;;;;;;23.50;22.50;;;;;;;;5053760;28;45418;-70
2021/11/04 06:07:37;;;;;;;;;22.25;21.25;;;;;;;;5053812;28;46083;-69
2021/11/04 06:10:03;;;;;;;;;24.75;24.25;;;;;;;;5055419;28;45329;-70
2021/11/04 06:12:28;;;;;;;;;30.50;23.75;;;;;;;;5053908;28;45457;-70
2021/11/04 06:14:54;;;;;;;;;21.50;21.25;;;;;;;;5052139;28;45218;-69
2021/11/04 06:17:19;;;;;;;;;29.75;26.00;;;;;;;;5051893;28;46380;-71
2021/11/04 06:19:44;;;;;;;;;54.50;45.50;;;;;;;;5053380;28;45410;-69
2021/11/04 06:22:09;;;;;;;;;109.33;91.00;;;;;;;;5055952;28;45327;-71
2021/11/04 06:24:34;;;;;;;;;142.25;125.25;;;;;;;;5053843;28;45242;-70
2021/11/04 06:27:00;;;;;;;;;147.00;132.00;;;;;;;;5053190;28;45345;-70
2021/11/04 06:29:25;;;;;;;;;161.75;145.75;;;;;;;;5053518;28;45320;-69
2021/11/04 06:31:50;;;;;;;;;102.67;89.00;;;;;;;;5054414;28;45441;-71
2021/11/04 06:34:16;;;;;;;;;97.00;85.33;;;;;;;;5055912;28;45664;-69
2021/11/04 06:36:41;;;;;;;;;121.33;103.33;;;;;;;;5052932;28;46195;-74
2021/11/04 06:39:06;;;;;;;;;102.00;92.00;;;;;;;;5034770;28;45477;-70
2021/11/04 06:41:31;;;;;;;;;79.00;64.00;;;;;;;;5053545;28;45767;-72
2021/11/04 06:43:57;;;;;;;;;68.50;51.75;;;;;;;;5053413;28;45260;-70
2021/11/04 06:46:23;;;;;;;;;65.75;49.75;;;;;;;;5054892;28;46126;-71
2021/11/04 06:48:51;;;;;;;;;60.00;48.00;;;;;;;;5052672;28;45433;-71
2021/11/04 06:51:22;;;;;;;;;66.75;51.75;;;;;;;;5053017;28;45463;-70
2021/11/04 06:53:54;;;;;;;;;56.50;44.25;;;;;;;;5051467;28;45578;-71
2021/11/04 06:56:20;;;;;;;;;48.25;38.75;;;;;;;;5050903;28;46544;-72
2021/11/04 06:58:47;;;;;;;;;41.25;35.25;;;;;;;;5051658;28;45294;-72
2021/11/04 07:01:14;;;;;;;;;25.75;24.75;;;;;;;;5054189;28;45476;-71
2021/11/04 07:03:48;;;;;;;;;28.75;26.25;;;;;;;;5052027;28;45510;-71
2021/11/04 07:06:19;;;;;;;;;18.75;15.75;;;;;;;;5052327;28;46775;-70
2021/11/04 07:08:52;;;;;;;;;21.25;18.75;;;;;;;;5052056;28;45404;-70
2021/11/04 07:11:18;;;;;;;;;22.50;20.25;;;;;;;;5052625;28;45306;-72
2021/11/04 07:13:46;;;;;;;;;18.00;15.25;;;;;;;;5051757;28;45318;-72
2021/11/04 07:16:11;;;;;;;;;20.25;18.75;;;;;;;;5053457;28;46054;-71
2021/11/04 07:18:37;;;;;;;;;23.50;22.00;;;;;;;;5052275;28;45617;-71
2021/11/04 07:21:03;;;;;;;;;16.75;13.00;;;;;;;;5051984;28;47758;-71
2021/11/04 07:23:39;;;;;;;;;31.25;25.00;;;;;;;;5051932;28;45346;-71
2021/11/04 07:26:05;;;;;;;;;16.00;16.00;;;;;;;;5051841;28;45449;-72
2021/11/04 07:28:31;;;;;;;;;20.50;20.50;;;;;;;;5053289;28;45412;-71
2021/11/04 07:30:56;;;;;;;;;18.00;16.25;;;;;;;;5052109;28;45701;-71
2021/11/04 07:33:24;;;;;;;;;16.25;16.25;;;;;;;;5050557;28;45486;-72
2021/11/04 07:35:51;;;;;;;;;9.75;8.75;;;;;;;;5049661;28;45506;-70
2021/11/04 07:38:17;;;;;;;;;16.00;13.25;;;;;;;;5051599;28;45436;-71
2021/11/04 07:40:42;;;;;;;;;15.50;14.00;;;;;;;;5052015;28;46039;-71
2021/11/04 07:43:08;;;;;;;;;30.00;27.00;;;;;;;;5053835;28;45431;-71
2021/11/04 07:45:34;;;;;;;;;19.00;16.75;;;;;;;;5046109;28;46270;-72
2021/11/04 07:47:59;;;;;;;;;20.75;18.00;;;;;;;;5031606;28;45355;-73
2021/11/04 07:50:26;;;;;;;;;15.25;14.75;;;;;;;;5031775;28;45494;-70
2021/11/04 07:52:51;;;;;;;;;14.75;13.50;;;;;;;;5051550;28;45409;-70
2021/11/04 07:55:17;;;;;;;;;15.25;13.75;;;;;;;;5053106;28;46377;-72
2021/11/04 07:57:42;;;;;;;;;15.25;12.75;;;;;;;;5050911;28;45234;-72
2021/11/04 08:00:12;;;;;;;;;12.75;11.00;;;;;;;;5050726;28;45261;-71
2021/11/04 08:02:40;;;;;;;;;16.25;13.00;;;;;;;;5033801;28;45465;-71
2021/11/04 08:05:05;;;;;;;;;15.00;14.50;;;;;;;;5051099;28;46075;-72
2021/11/04 08:07:33;;;;;;;;;13.25;12.25;;;;;;;;5052572;28;45319;-71
2021/11/04 08:09:59;;;;;;;;;14.75;13.00;;;;;;;;5051545;28;45338;-70
2021/11/04 08:12:25;;;;;;;;;15.50;14.00;;;;;;;;5049360;28;45528;-73
2021/11/04 08:14:50;;;;;;;;;19.50;15.25;;;;;;;;5048829;28;48888;-70
2021/11/04 08:17:15;;;;;;;;;15.00;13.25;;;;;;;;5050130;28;45431;-70
2021/11/04 08:19:40;;;;;;;;;13.50;11.50;;;;;;;;5050295;28;45387;-71
2021/11/04 08:22:06;;;;;;;;;14.25;13.25;;;;;;;;5053150;28;45420;-71
2021/11/04 08:24:31;;;;;;;;;14.00;12.75;;;;;;;;5050777;28;46166;-72
2021/11/04 08:26:56;;;;;;;;;15.75;13.75;;;;;;;;5050697;28;45630;-72
2021/11/04 08:29:22;;;;;;;;;16.75;13.25;;;;;;;;5050048;28;45407;-72
2021/11/04 08:31:47;;;;;;;;;11.75;9.75;;;;;;;;5050268;28;45605;-72
2021/11/04 08:34:12;;;;;;;;;14.00;11.50;;;;;;;;5052802;28;46183;-70
2021/11/04 08:36:37;;;;;;;;;14.00;11.75;;;;;;;;5050899;28;45599;-70
2021/11/04 08:39:03;;;;;;;;;11.25;10.25;;;;;;;;5050416;28;45353;-71
2021/11/04 08:41:28;;;;;;;;;22.25;21.25;;;;;;;;5049916;28;45450;-70
2021/11/04 08:43:53;;;;;;;;;14.75;12.50;;;;;;;;5049528;28;46314;-72
2021/11/04 08:46:18;;;;;;;;;9.75;9.75;;;;;;;;5052134;28;45345;-71
2021/11/04 08:48:43;;;;;;;;;16.25;14.00;;;;;;;;5050685;28;45375;-71
2021/11/04 08:51:09;;;;;;;;;13.00;9.75;;;;;;;;5048888;28;45458;-71
2021/11/04 08:53:34;;;;;;;;;14.00;12.75;;;;;;;;5048834;28;45575;-70
2021/11/04 08:55:59;;;;;;;;;14.75;13.75;;;;;;;;5050019;28;45606;-71
2021/11/04 08:58:24;;;;;;;;;8.50;8.00;;;;;;;;5052514;28;45288;-70
2021/11/04 09:00:51;;;;;;;;;10.25;10.25;;;;;;;;5050372;28;45439;-70
2021/11/04 09:03:16;;;;;;;;;12.00;9.00;;;;;;;;5050465;28;46013;-70
2021/11/04 09:05:44;;;;;;;;;7.00;7.00;;;;;;;;5050030;28;45578;-69
2021/11/04 09:08:09;;;;;;;;;13.75;11.50;;;;;;;;5050477;28;45486;-71
2021/11/04 09:10:34;;;;;;;;;10.75;8.75;;;;;;;;5050513;28;45459;-71
2021/11/04 09:13:00;;;;;;;;;9.00;7.75;;;;;;;;5050774;28;47101;-70
2021/11/04 09:15:25;;;;;;;;;7.50;6.75;;;;;;;;5049730;28;45478;-70
2021/11/04 09:17:50;;;;;;;;;9.00;8.00;;;;;;;;5050108;28;45410;-70
2021/11/04 09:20:17;;;;;;;;;6.00;6.00;;;;;;;;5049715;28;45504;-69
2021/11/04 09:22:46;;;;;;;;;10.75;7.00;;;;;;;;5053339;28;47240;-72
2021/11/04 09:25:11;;;;;;;;;10.75;7.50;;;;;;;;5056161;28;45285;-70
2021/11/04 09:27:36;;;;;;;;;8.00;6.50;;;;;;;;5052770;28;45418;-70
2021/11/04 09:30:01;;;;;;;;;9.00;9.00;;;;;;;;5051710;28;45248;-71
2021/11/04 09:32:27;;;;;;;;;10.25;8.75;;;;;;;;5051772;28;45438;-70
2021/11/04 09:34:52;;;;;;;;;9.50;6.75;;;;;;;;5053471;28;45621;-69
2021/11/04 09:37:18;;;;;;;;;14.00;12.00;;;;;;;;5055437;28;45294;-70
2021/11/04 09:39:44;;;;;;;;;6.25;5.50;;;;;;;;5053710;28;45465;-70
2021/11/04 09:42:09;;;;;;;;;6.75;5.00;;;;;;;;5035099;28;48544;-70
2021/11/04 09:44:34;;;;;;;;;7.00;4.25;;;;;;;;5053646;28;45282;-70
2021/11/04 09:47:00;;;;;;;;;6.50;6.50;;;;;;;;5053876;28;45621;-70
2021/11/04 09:49:27;;;;;;;;;5.75;5.25;;;;;;;;5056026;28;45256;-71
2021/11/04 09:51:53;;;;;;;;;6.50;5.25;;;;;;;;5054271;28;45438;-70
2021/11/04 09:54:19;;;;;;;;;6.50;5.25;;;;;;;;5053239;28;47324;-71
2021/11/04 09:56:44;;;;;;;;;6.00;4.25;;;;;;;;5053716;28;45575;-70
2021/11/04 09:59:09;;;;;;;;;3.25;2.25;;;;;;;;5053978;28;45310;-70
2021/11/04 10:01:35;;;;;;;;;6.00;3.50;;;;;;;;5054066;28;46135;-70
2021/11/04 10:04:01;;;;;;;;;3.50;3.00;;;;;;;;5054253;28;45418;-69
2021/11/04 10:06:27;;;;;;;;;3.50;3.50;;;;;;;;5052680;28;45586;-70
2021/11/04 10:08:53;;;;;;;;;3.25;3.25;;;;;;;;5051737;28;45337;-70
2021/11/04 10:11:20;;;;;;;;;3.50;3.50;;;;;;;;5052055;28;45542;-70
2021/11/04 10:13:46;;;;;;;;;4.50;3.50;;;;;;;;5052999;28;45313;-70
2021/11/04 10:16:12;;;;;;;;;5.00;5.00;;;;;;;;5055264;28;45272;-71
2021/11/04 10:18:41;;;;;;;;;10.25;6.00;;;;;;;;5053295;28;45497;-71
2021/11/04 10:21:06;;;;;;;;;3.50;3.50;;;;;;;;5052517;28;47294;-70
2021/11/04 10:23:39;;;;;;;;;7.25;4.00;;;;;;;;5052478;28;45473;-71
2021/11/04 10:26:06;;;;;;;;;6.00;4.00;;;;;;;;5053314;28;45441;-71
2021/11/04 10:28:31;;;;;;;;;5.50;3.00;;;;;;;;5053815;28;45425;-71
2021/11/04 10:30:57;;;;;;;;;6.50;4.75;;;;;;;;5053565;28;45448;-70
2021/11/04 10:33:27;;;;;;;;;4.25;4.00;;;;;;;;5050573;28;45303;-70
2021/11/04 10:36:13;;;;;;;;;7.50;5.00;;;;;;;;5052912;28;45426;-71
2021/11/04 10:38:42;;;;;;;;;4.00;4.00;;;;;;;;5052661;28;45408;-69
2021/11/04 10:41:09;;;;;;;;;8.75;6.50;;;;;;;;5052265;28;46059;-70
2021/11/04 10:43:36;;;;;;;;;5.00;2.00;;;;;;;;5053656;28;45439;-71
2021/11/04 10:46:02;;;;;;;;;5.25;3.50;;;;;;;;5053712;28;45397;-71
2021/11/04 10:48:28;;;;;;;;;5.75;5.75;;;;;;;;5050059;28;45640;-72
2021/11/04 10:50:53;;;;;;;;;3.00;3.00;;;;;;;;5050816;28;46402;-70
2021/11/04 10:53:20;;;;;;;;;3.75;3.00;;;;;;;;5052408;28;45379;-71
2021/11/04 10:55:46;;;;;;;;;4.50;3.25;;;;;;;;5052631;28;45409;-71
2021/11/04 10:58:27;;;;;;;;;8.50;6.00;;;;;;;;5054402;28;45329;-69
2021/11/04 11:00:53;;;;;;;;;2.75;2.25;;;;;;;;5053054;28;47193;-71
2021/11/04 11:03:18;;;;;;;;;3.25;3.00;;;;;;;;5052199;28;45507;-71
2021/11/04 11:05:44;;;;;;;;;4.00;4.00;;;;;;;;5034538;28;45331;-71
2021/11/04 11:08:12;;;;;;;;;3.00;1.50;;;;;;;;5052228;28;45358;-69
2021/11/04 11:10:44;;;;;;;;;5.75;3.00;;;;;;;;5034379;28;46119;-70
2021/11/04 11:13:09;;;;;;;;;3.75;3.00;;;;;;;;5052596;28;45465;-72
2021/11/04 11:15:39;;;;;;;;;3.00;3.00;;;;;;;;5052741;28;45431;-70
2021/11/04 11:18:06;;;;;;;;;2.50;1.50;;;;;;;;5052347;28;45340;-71
2021/11/04 11:20:32;;;;;;;;;2.00;2.00;;;;;;;;5051766;28;47048;-71
2021/11/04 11:22:58;;;;;;;;;2.00;2.00;;;;;;;;5051936;28;45513;-71
2021/11/04 11:25:24;;;;;;;;;5.00;5.00;;;;;;;;5053965;28;45481;-72
2021/11/04 11:27:49;;;;;;;;;3.00;3.00;;;;;;;;5050455;28;45319;-70
2021/11/04 11:30:14;;;;;;;;;4.50;3.25;;;;;;;;5050589;28;46360;-71
2021/11/04 11:32:40;;;;;;;;;6.50;4.25;;;;;;;;5052287;28;45417;-71
2021/11/04 11:35:16;;;;;;;;;3.00;2.00;;;;;;;;5051948;28;45516;-70
2021/11/04 11:37:54;;;;;;;;;4.50;4.25;;;;;;;;5050801;28;45428;-71
2021/11/04 11:40:19;;;;;;;;;6.00;4.50;;;;;;;;5053147;28;45293;-70
2021/11/04 11:42:58;;;;;;;;;2.00;2.00;;;;;;;;5051306;28;45484;-71
2021/11/04 11:45:24;;;;;;;;;7.25;2.75;;;;;;;;5052120;28;45517;-70
2021/11/04 11:47:49;;;;;;;;;4.00;2.75;;;;;;;;5051921;28;45602;-72
2021/11/04 11:50:14;;;;;;;;;3.00;3.00;;;;;;;;5051465;28;45899;-71
2021/11/04 11:52:46;;;;;;;;;4.00;4.00;;;;;;;;5051727;28;45340;-71
2021/11/04 11:55:14;;;;;;;;;4.75;4.75;;;;;;;;5052249;28;45270;-70
2021/11/04 11:57:40;;;;;;;;;4.75;4.00;;;;;;;;5051267;28;45403;-69
2021/11/04 12:00:06;;;;;;;;;4.00;4.00;;;;;;;;5051188;28;45287;-70
2021/11/04 12:02:37;;;;;;;;;6.75;5.00;;;;;;;;5051343;28;45404;-71
2021/11/04 12:05:35;;;;;;;;;7.50;6.25;;;;;;;;5049637;28;45335;-71
2021/11/04 12:08:09;;;;;;;;;5.00;4.00;;;;;;;;4917803;28;45474;-71
2021/11/04 12:10:38;;;;;;;;;5.50;5.50;;;;;;;;4932106;28;46329;-71
2021/11/04 12:13:04;;;;;;;;;8.25;6.50;;;;;;;;4932510;28;45735;-72
2021/11/04 12:15:30;;;;;;;;;7.75;7.75;;;;;;;;4932117;28;45371;-70
2021/11/04 12:18:10;;;;;;;;;2.50;2.50;;;;;;;;4932317;28;45375;-70
2021/11/04 12:20:35;;;;;;;;;5.75;5.75;;;;;;;;4931615;28;46158;-71
2021/11/04 12:23:00;;;;;;;;;2.00;2.00;;;;;;;;4932052;28;45491;-71
2021/11/04 12:25:28;;;;;;;;;2.00;2.00;;;;;;;;4916917;28;45420;-71
2021/11/04 12:27:57;;;;;;;;;4.25;3.00;;;;;;;;4932188;28;45450;-71
2021/11/04 12:30:27;;;;;;;;;2.00;0.75;;;;;;;;4931934;28;47039;-71
2021/11/04 12:33:02;;;;;;;;;2.50;2.50;;;;;;;;4931877;28;45389;-70
2021/11/04 12:35:46;;;;;;;;;12.25;10.25;;;;;;;;4931741;28;45460;-72
2021/11/04 12:38:29;;;;;;;;;0.75;0.75;;;;;;;;4918603;28;45482;-70
2021/11/04 12:41:04;;;;;;;;;4.00;2.75;;;;;;;;4916369;28;46210;-70
2021/11/04 12:43:32;;;;;;;;;1.50;1.50;;;;;;;;4967703;28;45361;-71
2021/11/04 12:46:10;;;;;;;;;5.00;3.75;;;;;;;;5050710;28;45726;-71
2021/11/04 12:49:02;;;;;;;;;2.75;2.50;;;;;;;;5048845;28;45468;-70
2021/11/04 12:51:42;;;;;;;;;2.50;2.50;;;;;;;;5046503;28;46189;-71
2021/11/04 12:54:07;;;;;;;;;2.50;2.50;;;;;;;;5050290;28;45472;-70
2021/11/04 12:56:38;;;;;;;;;1.75;1.75;;;;;;;;5054507;28;45572;-70
2021/11/04 12:59:04;;;;;;;;;5.00;2.00;;;;;;;;5035269;28;45553;-71
2021/11/04 13:01:29;;;;;;;;;1.25;1.25;;;;;;;;5055311;28;46264;-70
2021/11/04 13:03:54;;;;;;;;;1.50;1.00;;;;;;;;5054468;28;45482;-72
2021/11/04 13:06:20;;;;;;;;;1.25;1.25;;;;;;;;5036498;28;45352;-71
2021/11/04 13:08:46;;;;;;;;;0.50;0.50;;;;;;;;5054655;28;45341;-70
2021/11/04 13:11:16;;;;;;;;;0.00;0.00;;;;;;;;5054095;28;47136;-71
2021/11/04 13:13:46;;;;;;;;;1.00;1.00;;;;;;;;5036054;28;45622;-70
2021/11/04 13:16:24;;;;;;;;;2.00;2.00;;;;;;;;5054633;28;45330;-70
2021/11/04 13:18:49;;;;;;;;;0.00;0.00;;;;;;;;5053562;28;45606;-71
2021/11/04 13:21:18;;;;;;;;;1.00;1.00;;;;;;;;5053421;28;45558;-70
2021/11/04 13:23:44;;;;;;;;;1.00;1.00;;;;;;;;5051566;28;45223;-70
2021/11/04 13:26:10;;;;;;;;;1.25;1.25;;;;;;;;5050577;28;45501;-71
2021/11/04 13:28:36;;;;;;;;;0.50;0.50;;;;;;;;5052342;28;45358;-71
2021/11/04 13:31:12;;;;;;;;;0.00;0.00;;;;;;;;5055177;28;45422;-71
2021/11/04 13:33:41;;;;;;;;;0.00;0.00;;;;;;;;5053420;28;45484;-71
2021/11/04 13:36:08;;;;;;;;;1.00;1.00;;;;;;;;5054277;28;45474;-70
2021/11/04 13:38:33;;;;;;;;;2.00;0.00;;;;;;;;5054407;28;45397;-71
2021/11/04 13:41:04;;;;;;;;;1.75;1.75;;;;;;;;5053107;28;47159;-71
2021/11/04 13:43:45;;;;;;;;;1.75;1.00;;;;;;;;5055032;28;45333;-71
2021/11/04 13:46:14;;;;;;;;;0.00;0.00;;;;;;;;5054269;28;45226;-70
2021/11/04 13:48:55;;;;;;;;;2.75;1.25;;;;;;;;5053162;28;45731;-70
2021/11/04 13:51:27;;;;;;;;;6.00;5.75;;;;;;;;5053015;28;47352;-69
2021/11/04 13:53:52;;;;;;;;;0.00;0.00;;;;;;;;5053046;28;45463;-70
2021/11/04 13:56:17;;;;;;;;;0.50;0.50;;;;;;;;5033220;28;45540;-68
2021/11/04 13:58:44;;;;;;;;;0.00;0.00;;;;;;;;5052914;28;45340;-71
2021/11/04 14:01:09;;;;;;;;;1.00;1.00;;;;;;;;5054779;28;47664;-71
2021/11/04 14:03:35;;;;;;;;;4.00;2.50;;;;;;;;5051142;28;45362;-71
2021/11/04 14:06:01;;;;;;;;;3.00;2.00;;;;;;;;5050914;28;45320;-71
2021/11/04 14:08:46;;;;;;;;;1.25;0.25;;;;;;;;5034572;28;45431;-70
2021/11/04 14:11:16;;;;;;;;;1.00;1.00;;;;;;;;5039293;28;46215;-70
2021/11/04 14:13:51;;;;;;;;;1.00;1.00;;;;;;;;5052825;28;45601;-71
2021/11/04 14:16:36;;;;;;;;;5.00;5.00;;;;;;;;5053238;28;45307;-71
2021/11/04 14:19:02;;;;;;;;;3.00;3.00;;;;;;;;5053038;28;45364;-70
2021/11/04 14:21:28;;;;;;;;;2.00;1.00;;;;;;;;5051881;28;45604;-70
2021/11/04 14:23:55;;;;;;;;;0.00;0.00;;;;;;;;5052266;28;45304;-71
2021/11/04 14:26:21;;;;;;;;;1.00;1.00;;;;;;;;5053093;28;45405;-71